sensor_id;sensor_type;location;lat;lon;timestamp;pressure;altitude;pressure_sealevel;temperature;humidity
25944;BME280;13742;49.306;8.636;2023-03-20T00:00:00;100749.98;;;11.00;87.68
25944;BME280;13742;49.306;8.636;2023-03-20T00:01:00;100754.20;;;11.01;87.57
25944;BME280;13742;49.306;8.636;2023-03-20T00:02:00;100755.52;;;10.99;87.09
25944;BME280;13742;49.306;8.636;2023-03-20T00:03:00;100755.98;;;10.96;87.27
25944;BME280;13742;49.306;8.636;2023-03-20T00:04:00;100757.06;;;10.97;88.08
25944;BME280;13742;49.306;8.636;2023-03-20T00:05:00;100759.70;;;10.97;87.97
25944;BME280;13742;49.306;8.636;2023-03-20T00:06:00;100759.88;;;10.97;87.99
25944;BME280;13742;49.306;8.636;2023-03-20T00:07:00;100763.20;;;10.96;88.11
25944;BME280;13742;49.306;8.636;2023-03-20T00:08:00;100762.46;;;10.95;87.62
25944;BME280;13742;49.306;8.636;2023-03-20T00:09:01;100762.52;;;10.95;88.25
25944;BME280;13742;49.306;8.636;2023-03-20T00:10:00;100762.46;;;10.95;87.72
25944;BME280;13742;49.306;8.636;2023-03-20T00:11:00;100762.90;;;10.95;87.26
25944;BME280;13742;49.306;8.636;2023-03-20T00:12:00;100766.64;;;10.95;87.21
25944;BME280;13742;49.306;8.636;2023-03-20T00:13:00;100764.80;;;10.97;88.16
25944;BME280;13742;49.306;8.636;2023-03-20T00:14:03;100765.88;;;10.96;87.51
25944;BME280;13742;49.306;8.636;2023-03-20T00:15:00;100763.39;;;10.95;87.81
25944;BME280;13742;49.306;8.636;2023-03-20T00:16:00;100767.30;;;10.95;88.27
25944;BME280;13742;49.306;8.636;2023-03-20T00:17:00;100766.48;;;10.95;87.89
25944;BME280;13742;49.306;8.636;2023-03-20T00:18:00;100769.13;;;10.95;88.17
25944;BME280;13742;49.306;8.636;2023-03-20T00:19:00;100767.00;;;10.94;87.92
25944;BME280;13742;49.306;8.636;2023-03-20T00:20:00;100769.02;;;10.95;87.93
25944;BME280;13742;49.306;8.636;2023-03-20T00:21:00;100767.05;;;10.94;87.73
25944;BME280;13742;49.306;8.636;2023-03-20T00:22:00;100768.27;;;10.94;88.00
25944;BME280;13742;49.306;8.636;2023-03-20T00:23:00;100772.07;;;10.95;87.82
25944;BME280;13742;49.306;8.636;2023-03-20T00:24:00;100768.77;;;10.94;87.55
25944;BME280;13742;49.306;8.636;2023-03-20T00:25:00;100770.55;;;10.93;87.75
25944;BME280;13742;49.306;8.636;2023-03-20T00:26:00;100768.59;;;10.93;87.09
25944;BME280;13742;49.306;8.636;2023-03-20T00:27:01;100768.77;;;10.93;87.76
25944;BME280;13742;49.306;8.636;2023-03-20T00:28:00;100767.14;;;10.93;87.48
25944;BME280;13742;49.306;8.636;2023-03-20T00:29:00;100767.86;;;10.92;88.22
25944;BME280;13742;49.306;8.636;2023-03-20T00:30:00;100765.98;;;10.91;87.60
25944;BME280;13742;49.306;8.636;2023-03-20T00:31:00;100764.00;;;10.91;87.68
25944;BME280;13742;49.306;8.636;2023-03-20T00:32:00;100765.79;;;10.91;87.16
25944;BME280;13742;49.306;8.636;2023-03-20T00:33:00;100765.31;;;10.91;87.56
25944;BME280;13742;49.306;8.636;2023-03-20T00:34:00;100767.38;;;10.90;87.77
25944;BME280;13742;49.306;8.636;2023-03-20T00:35:00;100763.97;;;10.91;88.19
25944;BME280;13742;49.306;8.636;2023-03-20T00:36:00;100765.08;;;10.91;88.27
25944;BME280;13742;49.306;8.636;2023-03-20T00:37:00;100764.94;;;10.91;88.29
25944;BME280;13742;49.306;8.636;2023-03-20T00:38:00;100765.57;;;10.91;88.25
25944;BME280;13742;49.306;8.636;2023-03-20T00:39:00;100767.55;;;10.91;87.52
25944;BME280;13742;49.306;8.636;2023-03-20T00:40:00;100769.09;;;10.91;87.19
25944;BME280;13742;49.306;8.636;2023-03-20T00:41:00;100766.15;;;10.90;87.07
25944;BME280;13742;49.306;8.636;2023-03-20T00:42:01;100767.99;;;10.90;86.80
25944;BME280;13742;49.306;8.636;2023-03-20T00:43:00;100763.84;;;10.90;87.69
25944;BME280;13742;49.306;8.636;2023-03-20T00:44:01;100764.25;;;10.90;87.60
25944;BME280;13742;49.306;8.636;2023-03-20T00:45:01;100763.42;;;10.89;87.44
25944;BME280;13742;49.306;8.636;2023-03-20T00:46:00;100762.41;;;10.90;88.22
25944;BME280;13742;49.306;8.636;2023-03-20T00:47:03;100763.80;;;10.89;87.40
25944;BME280;13742;49.306;8.636;2023-03-20T00:48:00;100766.75;;;10.89;87.95
25944;BME280;13742;49.306;8.636;2023-03-20T00:49:00;100768.52;;;10.90;88.31
25944;BME280;13742;49.306;8.636;2023-03-20T00:50:00;100767.52;;;10.90;88.75
25944;BME280;13742;49.306;8.636;2023-03-20T00:51:00;100765.48;;;10.89;87.80
25944;BME280;13742;49.306;8.636;2023-03-20T00:52:00;100770.85;;;10.90;88.21
25944;BME280;13742;49.306;8.636;2023-03-20T00:53:00;100770.36;;;10.90;88.75
25944;BME280;13742;49.306;8.636;2023-03-20T00:54:00;100770.28;;;10.90;88.37
25944;BME280;13742;49.306;8.636;2023-03-20T00:55:00;100769.20;;;10.90;88.43
25944;BME280;13742;49.306;8.636;2023-03-20T00:56:00;100769.53;;;10.90;88.96
25944;BME280;13742;49.306;8.636;2023-03-20T00:57:00;100767.69;;;10.90;88.93
25944;BME280;13742;49.306;8.636;2023-03-20T00:58:00;100770.69;;;10.90;89.17
25944;BME280;13742;49.306;8.636;2023-03-20T00:59:00;100771.08;;;10.91;88.29
25944;BME280;13742;49.306;8.636;2023-03-20T01:00:04;100772.17;;;10.90;87.97
25944;BME280;13742;49.306;8.636;2023-03-20T01:01:00;100771.82;;;10.90;88.24
25944;BME280;13742;49.306;8.636;2023-03-20T01:02:00;100769.70;;;10.90;88.19
25944;BME280;13742;49.306;8.636;2023-03-20T01:03:00;100769.89;;;10.89;88.19
25944;BME280;13742;49.306;8.636;2023-03-20T01:04:00;100769.51;;;10.90;88.22
25944;BME280;13742;49.306;8.636;2023-03-20T01:05:00;100771.60;;;10.90;87.85
25944;BME280;13742;49.306;8.636;2023-03-20T01:06:00;100767.16;;;10.88;87.45
25944;BME280;13742;49.306;8.636;2023-03-20T01:07:00;100765.42;;;10.87;87.20
25944;BME280;13742;49.306;8.636;2023-03-20T01:08:00;100766.39;;;10.89;87.39
25944;BME280;13742;49.306;8.636;2023-03-20T01:09:00;100762.59;;;10.88;87.96
25944;BME280;13742;49.306;8.636;2023-03-20T01:10:00;100763.42;;;10.89;88.44
25944;BME280;13742;49.306;8.636;2023-03-20T01:11:00;100766.80;;;10.89;88.42
25944;BME280;13742;49.306;8.636;2023-03-20T01:12:00;100766.13;;;10.89;87.79
25944;BME280;13742;49.306;8.636;2023-03-20T01:13:00;100761.38;;;10.88;89.25
25944;BME280;13742;49.306;8.636;2023-03-20T01:14:01;100764.77;;;10.87;88.07
25944;BME280;13742;49.306;8.636;2023-03-20T01:15:00;100767.00;;;10.86;87.82
25944;BME280;13742;49.306;8.636;2023-03-20T01:16:00;100765.13;;;10.87;88.34
25944;BME280;13742;49.306;8.636;2023-03-20T01:17:00;100762.48;;;10.87;87.89
25944;BME280;13742;49.306;8.636;2023-03-20T01:18:00;100763.14;;;10.87;88.33
25944;BME280;13742;49.306;8.636;2023-03-20T01:19:00;100761.85;;;10.86;88.40
25944;BME280;13742;49.306;8.636;2023-03-20T01:20:00;100762.98;;;10.87;88.32
25944;BME280;13742;49.306;8.636;2023-03-20T01:21:00;100764.93;;;10.87;88.18
25944;BME280;13742;49.306;8.636;2023-03-20T01:22:01;100764.41;;;10.87;87.98
25944;BME280;13742;49.306;8.636;2023-03-20T01:23:00;100764.82;;;10.86;88.28
25944;BME280;13742;49.306;8.636;2023-03-20T01:24:00;100765.76;;;10.87;89.02
25944;BME280;13742;49.306;8.636;2023-03-20T01:25:00;100765.06;;;10.86;88.89
25944;BME280;13742;49.306;8.636;2023-03-20T01:26:00;100764.98;;;10.86;88.70
25944;BME280;13742;49.306;8.636;2023-03-20T01:27:04;100765.89;;;10.86;88.75
25944;BME280;13742;49.306;8.636;2023-03-20T01:28:00;100766.72;;;10.86;88.87
25944;BME280;13742;49.306;8.636;2023-03-20T01:29:00;100766.94;;;10.83;88.97
25944;BME280;13742;49.306;8.636;2023-03-20T01:30:00;100766.91;;;10.83;89.03
25944;BME280;13742;49.306;8.636;2023-03-20T01:31:00;100769.45;;;10.84;89.08
25944;BME280;13742;49.306;8.636;2023-03-20T01:32:00;100766.25;;;10.83;88.86
25944;BME280;13742;49.306;8.636;2023-03-20T01:33:00;100765.59;;;10.83;88.71
25944;BME280;13742;49.306;8.636;2023-03-20T01:34:00;100767.69;;;10.84;89.19
25944;BME280;13742;49.306;8.636;2023-03-20T01:35:00;100768.67;;;10.84;88.76
25944;BME280;13742;49.306;8.636;2023-03-20T01:36:00;100767.84;;;10.84;88.80
25944;BME280;13742;49.306;8.636;2023-03-20T01:37:00;100768.67;;;10.84;88.50
25944;BME280;13742;49.306;8.636;2023-03-20T01:38:00;100767.66;;;10.83;88.56
25944;BME280;13742;49.306;8.636;2023-03-20T01:39:00;100768.07;;;10.82;88.53
25944;BME280;13742;49.306;8.636;2023-03-20T01:40:00;100769.45;;;10.82;88.64
25944;BME280;13742;49.306;8.636;2023-03-20T01:41:04;100770.02;;;10.81;88.86
25944;BME280;13742;49.306;8.636;2023-03-20T01:42:00;100767.92;;;10.81;88.73
25944;BME280;13742;49.306;8.636;2023-03-20T01:43:01;100773.48;;;10.81;88.48
25944;BME280;13742;49.306;8.636;2023-03-20T01:44:00;100775.80;;;10.81;88.67
25944;BME280;13742;49.306;8.636;2023-03-20T01:45:00;100776.76;;;10.78;88.60
25944;BME280;13742;49.306;8.636;2023-03-20T01:46:02;100777.50;;;10.77;88.65
25944;BME280;13742;49.306;8.636;2023-03-20T01:47:00;100778.97;;;10.76;88.29
25944;BME280;13742;49.306;8.636;2023-03-20T01:49:04;100778.41;;;10.76;88.78
25944;BME280;13742;49.306;8.636;2023-03-20T01:51:00;100780.66;;;10.74;88.77
25944;BME280;13742;49.306;8.636;2023-03-20T01:52:00;100778.32;;;10.73;88.62
25944;BME280;13742;49.306;8.636;2023-03-20T01:55:00;100780.14;;;10.73;89.27
25944;BME280;13742;49.306;8.636;2023-03-20T01:56:00;100779.72;;;10.72;89.42
25944;BME280;13742;49.306;8.636;2023-03-20T01:57:04;100781.89;;;10.71;88.36
25944;BME280;13742;49.306;8.636;2023-03-20T01:58:01;100783.86;;;10.72;89.99
25944;BME280;13742;49.306;8.636;2023-03-20T02:00:09;100783.14;;;10.72;88.69
25944;BME280;13742;49.306;8.636;2023-03-20T02:01:00;100784.61;;;10.73;89.49
25944;BME280;13742;49.306;8.636;2023-03-20T02:02:00;100787.52;;;10.73;88.98
25944;BME280;13742;49.306;8.636;2023-03-20T02:03:00;100789.94;;;10.73;89.05
25944;BME280;13742;49.306;8.636;2023-03-20T02:04:00;100787.66;;;10.72;88.94
25944;BME280;13742;49.306;8.636;2023-03-20T02:05:02;100792.69;;;10.73;88.57
25944;BME280;13742;49.306;8.636;2023-03-20T02:06:00;100789.74;;;10.72;89.10
25944;BME280;13742;49.306;8.636;2023-03-20T02:07:00;100797.59;;;10.73;88.81
25944;BME280;13742;49.306;8.636;2023-03-20T02:09:00;100798.89;;;10.74;89.26
25944;BME280;13742;49.306;8.636;2023-03-20T02:10:00;100799.05;;;10.72;89.38
25944;BME280;13742;49.306;8.636;2023-03-20T02:11:00;100801.06;;;10.73;89.13
25944;BME280;13742;49.306;8.636;2023-03-20T02:12:00;100799.30;;;10.73;89.34
25944;BME280;13742;49.306;8.636;2023-03-20T02:13:00;100799.05;;;10.72;89.28
25944;BME280;13742;49.306;8.636;2023-03-20T02:14:00;100795.59;;;10.72;88.78
25944;BME280;13742;49.306;8.636;2023-03-20T02:15:00;100797.45;;;10.72;89.46
25944;BME280;13742;49.306;8.636;2023-03-20T02:17:00;100794.56;;;10.71;89.21
25944;BME280;13742;49.306;8.636;2023-03-20T02:18:00;100792.11;;;10.70;89.23
25944;BME280;13742;49.306;8.636;2023-03-20T02:19:00;100793.38;;;10.70;89.20
25944;BME280;13742;49.306;8.636;2023-03-20T02:22:06;100788.99;;;10.69;89.12
25944;BME280;13742;49.306;8.636;2023-03-20T02:26:03;100786.13;;;10.67;89.62
25944;BME280;13742;49.306;8.636;2023-03-20T02:28:08;100780.75;;;10.60;90.01
25944;BME280;13742;49.306;8.636;2023-03-20T02:32:06;100781.38;;;10.61;89.83
25944;BME280;13742;49.306;8.636;2023-03-20T02:36:06;100788.86;;;10.59;90.15
25944;BME280;13742;49.306;8.636;2023-03-20T02:41:01;100792.14;;;10.59;89.77
25944;BME280;13742;49.306;8.636;2023-03-20T02:46:05;100799.09;;;10.54;90.87
25944;BME280;13742;49.306;8.636;2023-03-20T02:50:12;100799.17;;;10.55;90.57
25944;BME280;13742;49.306;8.636;2023-03-20T02:51:06;100795.07;;;10.54;90.85
25944;BME280;13742;49.306;8.636;2023-03-20T02:57:23;100795.19;;;10.54;90.55
25944;BME280;13742;49.306;8.636;2023-03-20T02:58:08;100794.63;;;10.54;90.85
25944;BME280;13742;49.306;8.636;2023-03-20T02:59:06;100791.00;;;10.54;91.14
25944;BME280;13742;49.306;8.636;2023-03-20T03:00:21;100791.16;;;10.54;91.09
25944;BME280;13742;49.306;8.636;2023-03-20T03:01:02;100792.95;;;10.52;91.14
25944;BME280;13742;49.306;8.636;2023-03-20T03:02:05;100790.72;;;10.52;90.83
25944;BME280;13742;49.306;8.636;2023-03-20T03:03:03;100792.20;;;10.53;91.12
25944;BME280;13742;49.306;8.636;2023-03-20T03:04:02;100788.55;;;10.53;91.21
25944;BME280;13742;49.306;8.636;2023-03-20T03:05:00;100790.33;;;10.52;90.99
25944;BME280;13742;49.306;8.636;2023-03-20T03:06:02;100789.20;;;10.51;91.20
25944;BME280;13742;49.306;8.636;2023-03-20T03:07:01;100795.45;;;10.52;91.03
25944;BME280;13742;49.306;8.636;2023-03-20T03:08:00;100794.88;;;10.53;90.93
25944;BME280;13742;49.306;8.636;2023-03-20T03:09:05;100796.08;;;10.51;90.78
25944;BME280;13742;49.306;8.636;2023-03-20T03:10:02;100795.45;;;10.52;90.69
25944;BME280;13742;49.306;8.636;2023-03-20T03:11:02;100794.48;;;10.51;90.66
25944;BME280;13742;49.306;8.636;2023-03-20T03:12:10;100797.67;;;10.49;90.95
25944;BME280;13742;49.306;8.636;2023-03-20T03:13:01;100795.03;;;10.49;91.16
25944;BME280;13742;49.306;8.636;2023-03-20T03:13:59;100796.24;;;10.49;90.91
25944;BME280;13742;49.306;8.636;2023-03-20T03:15:01;100796.36;;;10.49;91.24
25944;BME280;13742;49.306;8.636;2023-03-20T03:16:04;100797.07;;;10.49;90.55
25944;BME280;13742;49.306;8.636;2023-03-20T03:17:00;100796.59;;;10.50;90.88
25944;BME280;13742;49.306;8.636;2023-03-20T03:17:59;100795.39;;;10.50;90.63
25944;BME280;13742;49.306;8.636;2023-03-20T03:19:02;100796.19;;;10.49;90.37
25944;BME280;13742;49.306;8.636;2023-03-20T03:20:01;100798.39;;;10.49;90.48
25944;BME280;13742;49.306;8.636;2023-03-20T03:21:00;100801.80;;;10.49;90.63
25944;BME280;13742;49.306;8.636;2023-03-20T03:22:00;100797.83;;;10.49;90.39
25944;BME280;13742;49.306;8.636;2023-03-20T03:23:00;100802.73;;;10.49;90.43
25944;BME280;13742;49.306;8.636;2023-03-20T03:24:00;100797.56;;;10.49;90.76
25944;BME280;13742;49.306;8.636;2023-03-20T03:25:00;100801.58;;;10.49;90.37
25944;BME280;13742;49.306;8.636;2023-03-20T03:26:03;100805.32;;;10.49;90.14
25944;BME280;13742;49.306;8.636;2023-03-20T03:27:01;100803.20;;;10.48;90.27
25944;BME280;13742;49.306;8.636;2023-03-20T03:29:01;100802.63;;;10.49;90.57
25944;BME280;13742;49.306;8.636;2023-03-20T03:30:07;100802.27;;;10.50;91.40
25944;BME280;13742;49.306;8.636;2023-03-20T03:30:59;100803.31;;;10.50;90.69
25944;BME280;13742;49.306;8.636;2023-03-20T03:32:00;100802.63;;;10.49;90.42
25944;BME280;13742;49.306;8.636;2023-03-20T03:34:00;100808.05;;;10.50;91.10
25944;BME280;13742;49.306;8.636;2023-03-20T03:35:00;100805.34;;;10.48;91.16
25944;BME280;13742;49.306;8.636;2023-03-20T03:36:03;100808.07;;;10.49;90.93
25944;BME280;13742;49.306;8.636;2023-03-20T03:37:11;100805.31;;;10.47;90.84
25944;BME280;13742;49.306;8.636;2023-03-20T03:38:01;100808.45;;;10.47;90.47
25944;BME280;13742;49.306;8.636;2023-03-20T03:43:00;100803.58;;;10.46;91.32
25944;BME280;13742;49.306;8.636;2023-03-20T03:46:01;100803.20;;;10.46;91.17
25944;BME280;13742;49.306;8.636;2023-03-20T03:47:06;100799.80;;;10.47;91.44
25944;BME280;13742;49.306;8.636;2023-03-20T03:48:06;100800.20;;;10.47;91.33
25944;BME280;13742;49.306;8.636;2023-03-20T03:48:59;100797.50;;;10.47;91.63
25944;BME280;13742;49.306;8.636;2023-03-20T03:50:02;100795.05;;;10.46;91.13
25944;BME280;13742;49.306;8.636;2023-03-20T03:51:02;100791.64;;;10.46;91.10
25944;BME280;13742;49.306;8.636;2023-03-20T03:52:04;100794.83;;;10.46;91.24
25944;BME280;13742;49.306;8.636;2023-03-20T03:53:01;100796.42;;;10.46;91.39
25944;BME280;13742;49.306;8.636;2023-03-20T03:54:04;100793.98;;;10.47;91.03
25944;BME280;13742;49.306;8.636;2023-03-20T03:55:02;100791.80;;;10.46;91.39
25944;BME280;13742;49.306;8.636;2023-03-20T03:56:01;100790.23;;;10.45;91.44
25944;BME280;13742;49.306;8.636;2023-03-20T03:57:00;100791.58;;;10.44;91.92
25944;BME280;13742;49.306;8.636;2023-03-20T03:58:01;100792.87;;;10.43;92.15
25944;BME280;13742;49.306;8.636;2023-03-20T03:59:01;100790.36;;;10.44;91.98
25944;BME280;13742;49.306;8.636;2023-03-20T04:00:00;100792.07;;;10.44;91.70
25944;BME280;13742;49.306;8.636;2023-03-20T04:01:00;100795.20;;;10.44;91.58
25944;BME280;13742;49.306;8.636;2023-03-20T04:02:00;100795.87;;;10.44;91.72
25944;BME280;13742;49.306;8.636;2023-03-20T04:03:00;100790.83;;;10.42;92.03
25944;BME280;13742;49.306;8.636;2023-03-20T04:04:03;100794.71;;;10.43;91.76
25944;BME280;13742;49.306;8.636;2023-03-20T04:04:59;100795.72;;;10.39;92.21
25944;BME280;13742;49.306;8.636;2023-03-20T04:05:59;100794.94;;;10.39;92.19
25944;BME280;13742;49.306;8.636;2023-03-20T04:06:59;100796.70;;;10.39;91.70
25944;BME280;13742;49.306;8.636;2023-03-20T04:08:00;100797.26;;;10.40;92.06
25944;BME280;13742;49.306;8.636;2023-03-20T04:09:00;100797.52;;;10.41;92.13
25944;BME280;13742;49.306;8.636;2023-03-20T04:10:00;100800.23;;;10.40;91.51
25944;BME280;13742;49.306;8.636;2023-03-20T04:10:59;100800.14;;;10.40;92.48
25944;BME280;13742;49.306;8.636;2023-03-20T04:11:59;100803.03;;;10.40;92.64
25944;BME280;13742;49.306;8.636;2023-03-20T04:13:00;100801.16;;;10.39;92.34
25944;BME280;13742;49.306;8.636;2023-03-20T04:13:59;100805.91;;;10.38;92.80
25944;BME280;13742;49.306;8.636;2023-03-20T04:15:00;100809.00;;;10.38;92.16
25944;BME280;13742;49.306;8.636;2023-03-20T04:15:59;100807.68;;;10.38;92.35
25944;BME280;13742;49.306;8.636;2023-03-20T04:16:59;100811.03;;;10.38;92.01
25944;BME280;13742;49.306;8.636;2023-03-20T04:17:59;100815.91;;;10.38;92.34
25944;BME280;13742;49.306;8.636;2023-03-20T04:18:59;100816.33;;;10.35;92.30
25944;BME280;13742;49.306;8.636;2023-03-20T04:19:59;100814.76;;;10.34;91.93
25944;BME280;13742;49.306;8.636;2023-03-20T04:20:59;100819.50;;;10.34;92.87
25944;BME280;13742;49.306;8.636;2023-03-20T04:21:59;100824.11;;;10.32;92.72
25944;BME280;13742;49.306;8.636;2023-03-20T04:23:00;100822.67;;;10.31;92.83
25944;BME280;13742;49.306;8.636;2023-03-20T04:24:00;100823.25;;;10.31;92.51
25944;BME280;13742;49.306;8.636;2023-03-20T04:25:00;100826.81;;;10.33;93.31
25944;BME280;13742;49.306;8.636;2023-03-20T04:26:00;100826.14;;;10.32;93.07
25944;BME280;13742;49.306;8.636;2023-03-20T04:26:59;100827.25;;;10.32;93.34
25944;BME280;13742;49.306;8.636;2023-03-20T04:27:59;100829.13;;;10.34;93.15
25944;BME280;13742;49.306;8.636;2023-03-20T04:29:00;100829.41;;;10.34;93.32
25944;BME280;13742;49.306;8.636;2023-03-20T04:29:59;100833.09;;;10.35;93.09
25944;BME280;13742;49.306;8.636;2023-03-20T04:31:00;100834.80;;;10.35;92.46
25944;BME280;13742;49.306;8.636;2023-03-20T04:31:59;100837.38;;;10.34;92.82
25944;BME280;13742;49.306;8.636;2023-03-20T04:32:59;100834.98;;;10.34;93.48
25944;BME280;13742;49.306;8.636;2023-03-20T04:33:59;100838.23;;;10.33;93.10
25944;BME280;13742;49.306;8.636;2023-03-20T04:34:59;100839.30;;;10.32;92.64
25944;BME280;13742;49.306;8.636;2023-03-20T04:35:59;100841.50;;;10.33;93.12
25944;BME280;13742;49.306;8.636;2023-03-20T04:37:00;100838.72;;;10.33;93.03
25944;BME280;13742;49.306;8.636;2023-03-20T04:37:59;100839.24;;;10.33;93.40
25944;BME280;13742;49.306;8.636;2023-03-20T04:38:59;100839.91;;;10.33;93.53
25944;BME280;13742;49.306;8.636;2023-03-20T04:40:00;100841.09;;;10.33;93.31
25944;BME280;13742;49.306;8.636;2023-03-20T04:41:00;100840.92;;;10.33;93.11
25944;BME280;13742;49.306;8.636;2023-03-20T04:41:59;100839.13;;;10.32;93.07
25944;BME280;13742;49.306;8.636;2023-03-20T04:42:59;100844.85;;;10.33;93.11
25944;BME280;13742;49.306;8.636;2023-03-20T04:43:59;100844.33;;;10.31;93.29
25944;BME280;13742;49.306;8.636;2023-03-20T04:45:00;100841.97;;;10.28;93.65
25944;BME280;13742;49.306;8.636;2023-03-20T04:46:00;100843.23;;;10.28;93.65
25944;BME280;13742;49.306;8.636;2023-03-20T04:46:59;100839.01;;;10.29;93.88
25944;BME280;13742;49.306;8.636;2023-03-20T04:48:00;100837.41;;;10.29;93.33
25944;BME280;13742;49.306;8.636;2023-03-20T04:49:00;100835.21;;;10.29;93.01
25944;BME280;13742;49.306;8.636;2023-03-20T04:50:00;100836.37;;;10.30;93.42
25944;BME280;13742;49.306;8.636;2023-03-20T04:50:59;100833.73;;;10.29;93.38
25944;BME280;13742;49.306;8.636;2023-03-20T04:51:59;100831.74;;;10.29;93.12
25944;BME280;13742;49.306;8.636;2023-03-20T04:53:00;100829.02;;;10.29;93.20
25944;BME280;13742;49.306;8.636;2023-03-20T04:54:00;100827.89;;;10.28;93.67
25944;BME280;13742;49.306;8.636;2023-03-20T04:55:00;100827.03;;;10.28;93.18
25944;BME280;13742;49.306;8.636;2023-03-20T04:55:59;100824.06;;;10.28;93.37
25944;BME280;13742;49.306;8.636;2023-03-20T04:56:59;100825.80;;;10.27;93.69
25944;BME280;13742;49.306;8.636;2023-03-20T04:57:59;100824.41;;;10.26;92.77
25944;BME280;13742;49.306;8.636;2023-03-20T04:58:59;100828.88;;;10.27;93.13
25944;BME280;13742;49.306;8.636;2023-03-20T04:59:59;100827.45;;;10.27;93.26
25944;BME280;13742;49.306;8.636;2023-03-20T05:00:59;100828.98;;;10.27;92.82
25944;BME280;13742;49.306;8.636;2023-03-20T05:01:59;100832.25;;;10.26;92.65
25944;BME280;13742;49.306;8.636;2023-03-20T05:03:00;100831.38;;;10.28;93.35
25944;BME280;13742;49.306;8.636;2023-03-20T05:04:00;100830.58;;;10.27;93.22
25944;BME280;13742;49.306;8.636;2023-03-20T05:05:00;100829.59;;;10.28;93.66
25944;BME280;13742;49.306;8.636;2023-03-20T05:05:59;100829.75;;;10.28;93.69
25944;BME280;13742;49.306;8.636;2023-03-20T05:06:59;100828.11;;;10.28;93.73
25944;BME280;13742;49.306;8.636;2023-03-20T05:07:59;100828.44;;;10.28;93.47
25944;BME280;13742;49.306;8.636;2023-03-20T05:08:59;100831.49;;;10.28;93.42
25944;BME280;13742;49.306;8.636;2023-03-20T05:10:00;100832.28;;;10.27;93.52
25944;BME280;13742;49.306;8.636;2023-03-20T05:11:00;100835.33;;;10.26;93.31
25944;BME280;13742;49.306;8.636;2023-03-20T05:11:59;100831.95;;;10.25;93.64
25944;BME280;13742;49.306;8.636;2023-03-20T05:13:00;100839.38;;;10.25;94.16
25944;BME280;13742;49.306;8.636;2023-03-20T05:13:59;100838.70;;;10.23;94.34
25944;BME280;13742;49.306;8.636;2023-03-20T05:14:59;100839.58;;;10.22;94.21
25944;BME280;13742;49.306;8.636;2023-03-20T05:16:00;100843.16;;;10.23;93.73
25944;BME280;13742;49.306;8.636;2023-03-20T05:17:00;100845.41;;;10.23;94.03
25944;BME280;13742;49.306;8.636;2023-03-20T05:18:00;100843.54;;;10.22;94.02
25944;BME280;13742;49.306;8.636;2023-03-20T05:19:00;100845.86;;;10.23;94.36
25944;BME280;13742;49.306;8.636;2023-03-20T05:19:59;100845.88;;;10.22;94.24
25944;BME280;13742;49.306;8.636;2023-03-20T05:21:00;100846.52;;;10.23;94.89
25944;BME280;13742;49.306;8.636;2023-03-20T05:22:00;100845.03;;;10.23;94.85
25944;BME280;13742;49.306;8.636;2023-03-20T05:22:59;100849.55;;;10.23;94.37
25944;BME280;13742;49.306;8.636;2023-03-20T05:24:00;100844.67;;;10.22;94.45
25944;BME280;13742;49.306;8.636;2023-03-20T05:25:00;100845.69;;;10.22;94.53
25944;BME280;13742;49.306;8.636;2023-03-20T05:25:59;100844.97;;;10.23;94.47
25944;BME280;13742;49.306;8.636;2023-03-20T05:26:59;100842.64;;;10.22;94.56
25944;BME280;13742;49.306;8.636;2023-03-20T05:27:59;100844.13;;;10.22;95.01
25944;BME280;13742;49.306;8.636;2023-03-20T05:28:59;100843.63;;;10.22;95.08
25944;BME280;13742;49.306;8.636;2023-03-20T05:29:59;100838.28;;;10.22;94.66
25944;BME280;13742;49.306;8.636;2023-03-20T05:30:59;100842.52;;;10.22;94.85
25944;BME280;13742;49.306;8.636;2023-03-20T05:31:59;100842.30;;;10.22;94.58
25944;BME280;13742;49.306;8.636;2023-03-20T05:32:59;100846.63;;;10.23;94.57
25944;BME280;13742;49.306;8.636;2023-03-20T05:34:00;100846.45;;;10.23;94.11
25944;BME280;13742;49.306;8.636;2023-03-20T05:34:59;100844.92;;;10.23;93.94
25944;BME280;13742;49.306;8.636;2023-03-20T05:36:00;100849.29;;;10.22;93.79
25944;BME280;13742;49.306;8.636;2023-03-20T05:36:59;100850.22;;;10.20;94.43
25944;BME280;13742;49.306;8.636;2023-03-20T05:37:59;100852.77;;;10.19;94.55
25944;BME280;13742;49.306;8.636;2023-03-20T05:38:59;100853.76;;;10.19;94.85
25944;BME280;13742;49.306;8.636;2023-03-20T05:39:59;100858.08;;;10.20;94.09
25944;BME280;13742;49.306;8.636;2023-03-20T05:41:00;100860.03;;;10.19;94.00
25944;BME280;13742;49.306;8.636;2023-03-20T05:42:00;100861.41;;;10.19;93.90
25944;BME280;13742;49.306;8.636;2023-03-20T05:42:59;100862.98;;;10.20;95.32
25944;BME280;13742;49.306;8.636;2023-03-20T05:44:00;100864.16;;;10.20;94.44
25944;BME280;13742;49.306;8.636;2023-03-20T05:44:59;100863.58;;;10.20;95.38
25944;BME280;13742;49.306;8.636;2023-03-20T05:46:00;100862.92;;;10.20;95.25
25944;BME280;13742;49.306;8.636;2023-03-20T05:46:59;100862.37;;;10.20;94.71
25944;BME280;13742;49.306;8.636;2023-03-20T05:47:59;100861.82;;;10.20;94.83
25944;BME280;13742;49.306;8.636;2023-03-20T05:48:59;100863.91;;;10.20;94.79
25944;BME280;13742;49.306;8.636;2023-03-20T05:49:59;100862.78;;;10.21;94.71
25944;BME280;13742;49.306;8.636;2023-03-20T05:50:59;100865.31;;;10.20;95.09
25944;BME280;13742;49.306;8.636;2023-03-20T05:51:59;100862.10;;;10.21;95.06
25944;BME280;13742;49.306;8.636;2023-03-20T05:52:59;100861.70;;;10.20;95.15
25944;BME280;13742;49.306;8.636;2023-03-20T05:53:59;100858.36;;;10.20;95.08
25944;BME280;13742;49.306;8.636;2023-03-20T05:55:00;100852.91;;;10.20;95.06
25944;BME280;13742;49.306;8.636;2023-03-20T05:55:59;100853.16;;;10.21;95.02